Weather at Glentanner Airport

Public forecast

Using degrees Celsius for public forecast. Weather courtesy of forecast.io.

Closest aviation weather report (METAR) to Glentanner Airport

Closest report is Christchurch International Airport, 107.3 nm (198.7 km) ENE. Retrieved 2022/05/17 22:30 UTC (39 minutes ago):

NZCH 172230Z AUTO 07009KT 9999 NCD 14/12 Q1011 NOSIG

Closest aviation forecast (TAF) to Glentanner Airport

Forecast is more than 12 hours old.

Closest forecast is Queenstown International Airport, 89.5 nm (165.8 km) SW. Retrieved 2022/03/28 12:06 UTC (2 months ago):

TAF NZQN 281106Z 2812/2906 04005KT 9999 SKC BECMG 2822/2900 25010KT BECMG 2903/2905 18010KT